sensor_id;sensor_type;location;lat;lon;timestamp;P1;durP1;ratioP1;P2;durP2;ratioP2
56631;SDS011;42503;39.928;-75.152;2023-03-01T00:05:36;6.65;;;5.57;;
56631;SDS011;42503;39.928;-75.152;2023-03-01T00:15:44;9.77;;;8.77;;
56631;SDS011;42503;39.928;-75.152;2023-03-01T00:25:45;12.60;;;10.18;;
56631;SDS011;42503;39.928;-75.152;2023-03-01T00:35:47;10.75;;;9.65;;
56631;SDS011;42503;39.928;-75.152;2023-03-01T00:45:48;11.27;;;10.10;;
56631;SDS011;42503;39.928;-75.152;2023-03-01T00:55:49;11.23;;;10.13;;
56631;SDS011;42503;39.928;-75.152;2023-03-01T01:05:53;10.95;;;9.80;;
56631;SDS011;42503;39.928;-75.152;2023-03-01T01:15:59;10.35;;;9.18;;
56631;SDS011;42503;39.928;-75.152;2023-03-01T01:26:06;16.15;;;8.90;;
56631;SDS011;42503;39.928;-75.152;2023-03-01T01:36:08;13.55;;;8.18;;
56631;SDS011;42503;39.928;-75.152;2023-03-01T01:46:29;8.95;;;7.05;;
56631;SDS011;42503;39.928;-75.152;2023-03-01T01:56:32;8.33;;;6.20;;
56631;SDS011;42503;39.928;-75.152;2023-03-01T02:06:35;7.80;;;5.47;;
56631;SDS011;42503;39.928;-75.152;2023-03-01T02:16:45;5.43;;;4.70;;
56631;SDS011;42503;39.928;-75.152;2023-03-01T02:26:50;6.95;;;4.85;;
56631;SDS011;42503;39.928;-75.152;2023-03-01T02:37:06;6.37;;;4.30;;
56631;SDS011;42503;39.928;-75.152;2023-03-01T02:47:13;7.50;;;4.05;;
56631;SDS011;42503;39.928;-75.152;2023-03-01T02:57:14;3.55;;;3.08;;
56631;SDS011;42503;39.928;-75.152;2023-03-01T03:07:16;4.68;;;3.20;;
56631;SDS011;42503;39.928;-75.152;2023-03-01T03:17:17;4.93;;;3.33;;
56631;SDS011;42503;39.928;-75.152;2023-03-01T03:27:19;6.38;;;3.05;;
56631;SDS011;42503;39.928;-75.152;2023-03-01T03:37:20;3.55;;;2.70;;
56631;SDS011;42503;39.928;-75.152;2023-03-01T03:47:40;2.90;;;2.40;;
56631;SDS011;42503;39.928;-75.152;2023-03-01T03:57:42;3.95;;;2.75;;
56631;SDS011;42503;39.928;-75.152;2023-03-01T04:07:44;4.78;;;2.63;;
56631;SDS011;42503;39.928;-75.152;2023-03-01T04:17:46;6.07;;;3.38;;
56631;SDS011;42503;39.928;-75.152;2023-03-01T04:27:47;3.45;;;2.33;;
56631;SDS011;42503;39.928;-75.152;2023-03-01T04:37:49;6.00;;;2.92;;
56631;SDS011;42503;39.928;-75.152;2023-03-01T04:47:53;5.05;;;2.75;;
56631;SDS011;42503;39.928;-75.152;2023-03-01T04:57:54;6.80;;;2.50;;
56631;SDS011;42503;39.928;-75.152;2023-03-01T05:08:00;6.95;;;2.40;;
56631;SDS011;42503;39.928;-75.152;2023-03-01T05:18:03;3.78;;;2.40;;
56631;SDS011;42503;39.928;-75.152;2023-03-01T05:28:07;4.07;;;2.47;;
56631;SDS011;42503;39.928;-75.152;2023-03-01T05:38:12;7.20;;;2.67;;
56631;SDS011;42503;39.928;-75.152;2023-03-01T05:48:14;5.85;;;2.50;;
56631;SDS011;42503;39.928;-75.152;2023-03-01T05:58:20;3.17;;;2.47;;
56631;SDS011;42503;39.928;-75.152;2023-03-01T06:08:22;4.50;;;2.33;;
56631;SDS011;42503;39.928;-75.152;2023-03-01T06:18:29;3.13;;;2.40;;
56631;SDS011;42503;39.928;-75.152;2023-03-01T06:28:33;6.65;;;2.58;;
56631;SDS011;42503;39.928;-75.152;2023-03-01T06:38:35;2.55;;;2.15;;
56631;SDS011;42503;39.928;-75.152;2023-03-01T06:48:36;3.67;;;2.72;;
56631;SDS011;42503;39.928;-75.152;2023-03-01T06:58:38;4.22;;;2.45;;
56631;SDS011;42503;39.928;-75.152;2023-03-01T07:08:39;4.05;;;2.50;;
56631;SDS011;42503;39.928;-75.152;2023-03-01T07:18:41;3.35;;;2.45;;
56631;SDS011;42503;39.928;-75.152;2023-03-01T07:28:42;3.55;;;1.92;;
56631;SDS011;42503;39.928;-75.152;2023-03-01T07:38:43;4.78;;;2.47;;
56631;SDS011;42503;39.928;-75.152;2023-03-01T07:48:45;4.22;;;3.05;;
56631;SDS011;42503;39.928;-75.152;2023-03-01T07:58:46;6.88;;;3.42;;
56631;SDS011;42503;39.928;-75.152;2023-03-01T08:08:51;5.65;;;2.47;;
56631;SDS011;42503;39.928;-75.152;2023-03-01T08:18:52;5.13;;;2.80;;
56631;SDS011;42503;39.928;-75.152;2023-03-01T08:28:56;4.63;;;3.20;;
56631;SDS011;42503;39.928;-75.152;2023-03-01T08:39:00;4.35;;;2.67;;
56631;SDS011;42503;39.928;-75.152;2023-03-01T08:49:05;4.18;;;2.75;;
56631;SDS011;42503;39.928;-75.152;2023-03-01T08:59:08;3.10;;;2.50;;
56631;SDS011;42503;39.928;-75.152;2023-03-01T09:09:14;4.03;;;2.83;;
56631;SDS011;42503;39.928;-75.152;2023-03-01T09:19:17;6.03;;;3.10;;
56631;SDS011;42503;39.928;-75.152;2023-03-01T09:29:21;4.65;;;3.00;;
56631;SDS011;42503;39.928;-75.152;2023-03-01T09:39:23;3.25;;;2.70;;
56631;SDS011;42503;39.928;-75.152;2023-03-01T09:49:28;3.88;;;2.40;;
56631;SDS011;42503;39.928;-75.152;2023-03-01T09:59:38;2.90;;;2.23;;
56631;SDS011;42503;39.928;-75.152;2023-03-01T10:09:44;3.22;;;2.20;;
56631;SDS011;42503;39.928;-75.152;2023-03-01T10:19:46;2.97;;;2.30;;
56631;SDS011;42503;39.928;-75.152;2023-03-01T10:40:31;2.10;;;1.90;;
56631;SDS011;42503;39.928;-75.152;2023-03-01T10:50:39;2.33;;;2.13;;
56631;SDS011;42503;39.928;-75.152;2023-03-01T11:00:54;2.33;;;2.13;;
56631;SDS011;42503;39.928;-75.152;2023-03-01T11:11:03;2.40;;;2.20;;
56631;SDS011;42503;39.928;-75.152;2023-03-01T11:21:15;3.30;;;2.22;;
56631;SDS011;42503;39.928;-75.152;2023-03-01T11:31:17;2.42;;;2.22;;
56631;SDS011;42503;39.928;-75.152;2023-03-01T11:41:20;2.75;;;2.55;;
56631;SDS011;42503;39.928;-75.152;2023-03-01T12:12:30;3.23;;;2.70;;
56631;SDS011;42503;39.928;-75.152;2023-03-01T12:53:41;4.00;;;2.80;;
56631;SDS011;42503;39.928;-75.152;2023-03-01T13:24:33;3.22;;;2.35;;
56631;SDS011;42503;39.928;-75.152;2023-03-01T13:34:43;5.70;;;2.25;;
56631;SDS011;42503;39.928;-75.152;2023-03-01T13:44:46;4.10;;;2.30;;
56631;SDS011;42503;39.928;-75.152;2023-03-01T13:54:56;5.45;;;2.92;;
56631;SDS011;42503;39.928;-75.152;2023-03-01T14:04:58;3.72;;;2.50;;
56631;SDS011;42503;39.928;-75.152;2023-03-01T14:25:27;3.38;;;2.17;;
56631;SDS011;42503;39.928;-75.152;2023-03-01T14:35:35;3.20;;;2.15;;
56631;SDS011;42503;39.928;-75.152;2023-03-01T14:45:37;4.43;;;1.90;;
56631;SDS011;42503;39.928;-75.152;2023-03-01T14:55:40;3.17;;;1.88;;
56631;SDS011;42503;39.928;-75.152;2023-03-01T15:05:45;2.25;;;1.60;;
56631;SDS011;42503;39.928;-75.152;2023-03-01T15:15:49;5.85;;;2.45;;
56631;SDS011;42503;39.928;-75.152;2023-03-01T15:25:53;3.15;;;2.10;;
56631;SDS011;42503;39.928;-75.152;2023-03-01T15:36:02;3.10;;;1.83;;
56631;SDS011;42503;39.928;-75.152;2023-03-01T15:46:33;3.50;;;2.22;;
56631;SDS011;42503;39.928;-75.152;2023-03-01T15:56:43;2.80;;;1.83;;
56631;SDS011;42503;39.928;-75.152;2023-03-01T16:06:45;2.30;;;2.10;;
56631;SDS011;42503;39.928;-75.152;2023-03-01T16:16:59;2.30;;;2.00;;
56631;SDS011;42503;39.928;-75.152;2023-03-01T16:27:00;2.92;;;1.48;;
56631;SDS011;42503;39.928;-75.152;2023-03-01T16:37:01;2.72;;;1.73;;
56631;SDS011;42503;39.928;-75.152;2023-03-01T16:47:03;2.10;;;1.45;;
56631;SDS011;42503;39.928;-75.152;2023-03-01T16:57:10;1.73;;;1.45;;
56631;SDS011;42503;39.928;-75.152;2023-03-01T17:07:15;2.20;;;1.50;;
56631;SDS011;42503;39.928;-75.152;2023-03-01T17:17:16;2.80;;;1.70;;
56631;SDS011;42503;39.928;-75.152;2023-03-01T17:27:17;3.60;;;1.40;;
56631;SDS011;42503;39.928;-75.152;2023-03-01T17:37:19;2.38;;;1.15;;
56631;SDS011;42503;39.928;-75.152;2023-03-01T17:47:20;2.88;;;1.60;;
56631;SDS011;42503;39.928;-75.152;2023-03-01T17:57:24;1.73;;;1.60;;
56631;SDS011;42503;39.928;-75.152;2023-03-01T18:07:32;12.18;;;2.10;;
56631;SDS011;42503;39.928;-75.152;2023-03-01T18:17:33;7.07;;;1.80;;
56631;SDS011;42503;39.928;-75.152;2023-03-01T18:27:34;6.35;;;2.42;;
56631;SDS011;42503;39.928;-75.152;2023-03-01T18:37:36;5.93;;;1.77;;
56631;SDS011;42503;39.928;-75.152;2023-03-01T18:47:38;5.22;;;1.73;;
56631;SDS011;42503;39.928;-75.152;2023-03-01T18:57:39;1.92;;;1.70;;
56631;SDS011;42503;39.928;-75.152;2023-03-01T19:07:43;6.20;;;1.92;;
56631;SDS011;42503;39.928;-75.152;2023-03-01T19:17:44;3.53;;;1.85;;
56631;SDS011;42503;39.928;-75.152;2023-03-01T19:27:46;2.75;;;1.50;;
56631;SDS011;42503;39.928;-75.152;2023-03-01T19:37:48;3.78;;;1.65;;
56631;SDS011;42503;39.928;-75.152;2023-03-01T19:47:50;2.50;;;1.45;;
56631;SDS011;42503;39.928;-75.152;2023-03-01T19:57:54;1.77;;;1.40;;
56631;SDS011;42503;39.928;-75.152;2023-03-01T20:07:56;1.88;;;1.52;;
56631;SDS011;42503;39.928;-75.152;2023-03-01T20:17:58;4.15;;;1.90;;
56631;SDS011;42503;39.928;-75.152;2023-03-01T20:27:59;4.18;;;1.60;;
56631;SDS011;42503;39.928;-75.152;2023-03-01T20:38:02;4.88;;;1.52;;
56631;SDS011;42503;39.928;-75.152;2023-03-01T20:48:04;3.30;;;1.80;;
56631;SDS011;42503;39.928;-75.152;2023-03-01T20:58:05;2.60;;;1.70;;
56631;SDS011;42503;39.928;-75.152;2023-03-01T21:08:07;1.33;;;1.23;;
56631;SDS011;42503;39.928;-75.152;2023-03-01T21:18:08;2.38;;;1.40;;
56631;SDS011;42503;39.928;-75.152;2023-03-01T21:28:09;2.70;;;1.27;;
56631;SDS011;42503;39.928;-75.152;2023-03-01T21:38:11;2.35;;;1.90;;
56631;SDS011;42503;39.928;-75.152;2023-03-01T21:48:15;50.63;;;3.25;;
56631;SDS011;42503;39.928;-75.152;2023-03-01T21:58:16;2.70;;;1.55;;
56631;SDS011;42503;39.928;-75.152;2023-03-01T22:08:19;3.90;;;1.70;;
56631;SDS011;42503;39.928;-75.152;2023-03-01T22:18:20;4.97;;;1.85;;
56631;SDS011;42503;39.928;-75.152;2023-03-01T22:28:21;6.40;;;1.48;;
56631;SDS011;42503;39.928;-75.152;2023-03-01T22:38:23;3.08;;;1.30;;
56631;SDS011;42503;39.928;-75.152;2023-03-01T22:48:24;4.97;;;1.80;;
56631;SDS011;42503;39.928;-75.152;2023-03-01T22:58:29;4.20;;;1.60;;
56631;SDS011;42503;39.928;-75.152;2023-03-01T23:08:30;2.97;;;1.80;;
56631;SDS011;42503;39.928;-75.152;2023-03-01T23:18:32;3.20;;;1.67;;
56631;SDS011;42503;39.928;-75.152;2023-03-01T23:28:34;38.13;;;4.72;;
56631;SDS011;42503;39.928;-75.152;2023-03-01T23:38:40;12.07;;;2.03;;
56631;SDS011;42503;39.928;-75.152;2023-03-01T23:48:42;11.00;;;2.30;;
56631;SDS011;42503;39.928;-75.152;2023-03-01T23:58:44;9.80;;;1.80;;
